Time;durP1;ratioP1;P1;durP2;ratioP2;P2;SDS_P1;SDS_P2;PMS_P1;PMS_P2;Temp;Humidity;BMP_temperature;BMP_pressure;BME280_temperature;BME280_humidity;BME280_pressure;Samples;Min_cycle;Max_cycle;Signal;HPM_P1;HPM_P2
2019/06/28 00:00:31;;;;;;;5.2;2.7;;;;;;;24.63;56.34375;944.0461;;;;
2019/06/28 00:03:07;;;;;;;4.6;3.1;;;;;;;24.49;56.64453;944.0873;;;;
2019/06/28 00:05:50;;;;;;;7;3;;;;;;;24.27;55.70996;944.0569;;;;
2019/06/28 00:08:38;;;;;;;5.4;2.8;;;;;;;24.3;55.1582;944.067;;;;
2019/06/28 00:11:14;;;;;;;4.6;2.7;;;;;;;24.25;55.29395;943.969;;;;
2019/06/28 00:13:49;;;;;;;5.1;2.8;;;;;;;24.23;54.47754;944.02;;;;
2019/06/28 00:16:39;;;;;;;4.1;2.5;;;;;;;24.03;53.79395;944.0306;;;;
2019/06/28 00:19:15;;;;;;;7.1;2.5;;;;;;;24.01;52.68555;944.0769;;;;
2019/06/28 00:22:09;;;;;;;5;2.1;;;;;;;24.03;52.85352;944.0689;;;;
2019/06/28 00:24:57;;;;;;;3.3;2.2;;;;;;;24.03;52.1582;943.9867;;;;
2019/06/28 00:27:28;;;;;;;5.3;2.3;;;;;;;23.96;52.03223;944.0312;;;;
2019/06/28 00:29:54;;;;;;;5.2;2.4;;;;;;;24.15;52.53711;944.0568;;;;
2019/06/28 00:32:26;;;;;;;6.6;2.2;;;;;;;24.03;52.1582;944.0649;;;;
2019/06/28 00:35:23;;;;;;;4.6;2.2;;;;;;;23.96;51.71484;944.0312;;;;
2019/06/28 00:37:51;;;;;;;6.2;2.1;;;;;;;24.04;51.92285;944.0117;;;;
2019/06/28 00:40:19;;;;;;;3.6;2;;;;;;;23.79;51.60059;944.0764;;;;
2019/06/28 00:43:11;;;;;;;5.5;2.1;;;;;;;23.87;51.51563;944.0259;;;;
2019/06/28 00:45:45;;;;;;;7.3;2.3;;;;;;;23.85;51.91406;944.0901;;;;
2019/06/28 00:48:25;;;;;;;6.2;2.1;;;;;;;23.9;51.43652;944.0488;;;;
2019/06/28 00:50:55;;;;;;;6.6;2.3;;;;;;;23.69;52.04785;944.1071;;;;
2019/06/28 00:53:30;;;;;;;5.4;2.1;;;;;;;23.8;51.95605;944.0742;;;;
2019/06/28 00:55:54;;;;;;;5.5;2.1;;;;;;;23.71;52.3916;944.0789;;;;
2019/06/28 00:58:59;;;;;;;6.2;2.1;;;;;;;23.79;52.98926;944.0373;;;;
2019/06/28 01:01:39;;;;;;;2.7;2;;;;;;;23.75;52.47852;944.0856;;;;
2019/06/28 01:04:35;;;;;;;4.8;2.2;;;;;;;23.7;52.24902;944.1411;;;;
2019/06/28 01:07:05;;;;;;;4.5;2.4;;;;;;;23.79;53.56641;944.1103;;;;
2019/06/28 01:09:42;;;;;;;5.6;2.4;;;;;;;23.71;53.0498;944.1609;;;;
2019/06/28 01:12:21;;;;;;;4.7;2.2;;;;;;;23.41;55.55469;944.05;;;;
2019/06/28 01:14:54;;;;;;;5.2;2.6;;;;;;;23.33;55.40234;944.1177;;;;
2019/06/28 01:17:47;;;;;;;5.7;2.4;;;;;;;23.04;56.00098;944.0519;;;;
2019/06/28 01:20:23;;;;;;;3.3;2.4;;;;;;;22.99;54.84375;944.0898;;;;
2019/06/28 01:22:52;;;;;;;4.9;2.4;;;;;;;22.96;54.0293;944.1069;;;;
2019/06/28 01:25:37;;;;;;;5.9;2.4;;;;;;;22.83;55.69238;944.1375;;;;
2019/06/28 01:28:06;;;;;;;4;2;;;;;;;22.95;53.59375;944.064;;;;
2019/06/28 01:30:45;;;;;;;4.2;2.2;;;;;;;22.99;51.9082;944.0368;;;;
2019/06/28 01:33:38;;;;;;;4.6;2.1;;;;;;;22.91;53.53125;944.0042;;;;
2019/06/28 01:36:29;;;;;;;3.9;2.5;;;;;;;22.74;55.64648;944.0183;;;;
2019/06/28 01:39:24;;;;;;;5.1;2.5;;;;;;;22.67;56.96387;943.9976;;;;
2019/06/28 01:41:59;;;;;;;5.8;2.5;;;;;;;22.57;55.66211;943.9756;;;;
2019/06/28 01:44:44;;;;;;;4.5;2.5;;;;;;;22.65;55.92871;943.9567;;;;
2019/06/28 01:47:27;;;;;;;3.5;2.5;;;;;;;22.65;55.53027;943.9617;;;;
2019/06/28 01:50:17;;;;;;;5.7;2.4;;;;;;;22.5;55.83984;943.9469;;;;
2019/06/28 01:53:16;;;;;;;8;2.3;;;;;;;22.59;55.38086;943.8996;;;;
2019/06/28 01:56:08;;;;;;;7.9;3.3;;;;;;;22.18;57.8623;943.985;;;;
2019/06/28 01:58:33;;;;;;;8.5;2.9;;;;;;;22.23;56.81348;943.9652;;;;
2019/06/28 02:01:09;;;;;;;5.8;2.4;;;;;;;22.25;57.02734;943.9542;;;;
2019/06/28 02:04:01;;;;;;;5.1;2.7;;;;;;;22.06;57.42578;943.9483;;;;
2019/06/28 02:06:56;;;;;;;3.5;2.2;;;;;;;22;56.10547;943.8728;;;;
2019/06/28 02:09:23;;;;;;;4.1;2;;;;;;;21.99;55.04883;943.9048;;;;
2019/06/28 02:12:04;;;;;;;5.6;2.9;;;;;;;21.98;57.40234;943.8719;;;;
2019/06/28 02:14:43;;;;;;;5.5;2.6;;;;;;;21.71;57.93066;943.9026;;;;
2019/06/28 02:17:20;;;;;;;6.4;2.7;;;;;;;21.56;58.92969;943.9044;;;;
2019/06/28 02:19:56;;;;;;;4.7;2.9;;;;;;;21.41;59.26172;943.8799;;;;
2019/06/28 02:22:28;;;;;;;5.6;3.2;;;;;;;21.26;60.07129;943.8738;;;;
2019/06/28 02:24:53;;;;;;;6.1;3.2;;;;;;;21.27;61.125;943.8389;;;;
2019/06/28 02:27:22;;;;;;;8.4;3.5;;;;;;;20.98;62.11523;943.8613;;;;
2019/06/28 02:29:48;;;;;;;4.8;2.8;;;;;;;21.01;60.38867;943.8145;;;;
2019/06/28 02:32:22;;;;;;;5.1;3;;;;;;;21.06;59.87988;943.8;;;;
2019/06/28 02:34:45;;;;;;;6;2.9;;;;;;;21.08;59.86035;943.7761;;;;
2019/06/28 02:37:26;;;;;;;4.8;2.4;;;;;;;21.04;58.06445;943.7252;;;;
2019/06/28 02:40:07;;;;;;;4.8;3.1;;;;;;;20.97;58.80469;943.7336;;;;
2019/06/28 02:43:00;;;;;;;3.7;2.3;;;;;;;20.98;57.83594;943.6928;;;;
2019/06/28 02:45:48;;;;;;;4.5;2.5;;;;;;;21.04;57.87793;943.6993;;;;
2019/06/28 02:48:28;;;;;;;6.7;3;;;;;;;20.98;59.30859;943.646;;;;
2019/06/28 02:51:03;;;;;;;6.4;3.1;;;;;;;20.86;59.31641;943.7214;;;;
2019/06/28 02:53:42;;;;;;;7.3;2.6;;;;;;;20.88;58.13672;943.7234;;;;
2019/06/28 02:56:27;;;;;;;3.8;2.5;;;;;;;20.8;58.91016;943.7378;;;;
2019/06/28 02:59:16;;;;;;;5.8;3.3;;;;;;;20.7;59.43359;943.6947;;;;
2019/06/28 03:01:43;;;;;;;7;3.5;;;;;;;20.27;61.66504;943.7308;;;;
2019/06/28 03:04:19;;;;;;;7.4;4.1;;;;;;;19.95;63.12598;943.6914;;;;
2019/06/28 03:06:52;;;;;;;6.2;3.1;;;;;;;19.9;62.75684;943.7458;;;;
2019/06/28 03:09:28;;;;;;;5.4;2.8;;;;;;;19.77;62.94824;943.7356;;;;
2019/06/28 03:12:02;;;;;;;4.4;2.6;;;;;;;19.71;63.98926;943.764;;;;
2019/06/28 03:14:41;;;;;;;4.8;2.7;;;;;;;19.7;63.32324;943.6964;;;;
2019/06/28 03:17:09;;;;;;;3;2.5;;;;;;;19.63;63.23145;943.6919;;;;
2019/06/28 03:19:39;;;;;;;6.2;2.7;;;;;;;19.52;63.93945;943.6576;;;;
2019/06/28 03:22:19;;;;;;;7.6;3.3;;;;;;;19.53;64.01074;943.6905;;;;
2019/06/28 03:24:52;;;;;;;3.6;2.6;;;;;;;19.45;64.67383;943.6878;;;;
2019/06/28 03:27:50;;;;;;;6;2.8;;;;;;;19.53;63.3916;943.777;;;;
2019/06/28 03:30:42;;;;;;;7.1;2.9;;;;;;;19.48;63.73438;943.6881;;;;
2019/06/28 03:33:17;;;;;;;5.9;2.8;;;;;;;19.63;64.39648;943.7695;;;;
2019/06/28 03:36:01;;;;;;;6.7;2.9;;;;;;;19.47;64.03613;943.7626;;;;
2019/06/28 03:38:44;;;;;;;5.8;2.6;;;;;;;19.79;61.58691;943.8144;;;;
2019/06/28 03:41:39;;;;;;;8.1;3.2;;;;;;;19.73;62.91895;943.8656;;;;
2019/06/28 03:44:21;;;;;;;6.6;3.4;;;;;;;19.48;63.91992;943.874;;;;
2019/06/28 03:46:55;;;;;;;5.8;3;;;;;;;19.52;64.3125;943.9161;;;;
2019/06/28 03:49:24;;;;;;;6.7;3.5;;;;;;;19.14;65.31543;943.8882;;;;
2019/06/28 03:52:08;;;;;;;7.6;3.5;;;;;;;18.94;66.57813;943.9166;;;;
2019/06/28 03:54:41;;;;;;;5.8;3.1;;;;;;;19.08;65.08594;943.8608;;;;
2019/06/28 03:57:27;;;;;;;5.8;3.4;;;;;;;19.09;65.77441;943.8688;;;;
2019/06/28 04:00:00;;;;;;;6.7;3.1;;;;;;;19.08;66.08789;943.9124;;;;
2019/06/28 04:03:07;;;;;;;7;3.2;;;;;;;19.21;64.17285;943.9534;;;;
2019/06/28 04:05:35;;;;;;;6.5;3.2;;;;;;;19.34;64.54102;943.9728;;;;
2019/06/28 04:11:08;;;;;;;8;2.6;;;;;;;19.54;61.35449;943.8878;;;;
2019/06/28 04:13:34;;;;;;;4.4;2.8;;;;;;;19.56;62.71973;943.9724;;;;
2019/06/28 04:16:16;;;;;;;5.6;2.9;;;;;;;19.87;63.25586;943.9556;;;;
2019/06/28 04:18:48;;;;;;;6.1;3.1;;;;;;;19.9;62.68652;943.9437;;;;
2019/06/28 04:21:23;;;;;;;3.8;2.8;;;;;;;19.93;63.03027;943.8972;;;;
2019/06/28 04:24:15;;;;;;;5;2.8;;;;;;;19.94;63.48633;943.8824;;;;
2019/06/28 04:26:50;;;;;;;5.8;3;;;;;;;19.82;65.27539;943.8803;;;;
2019/06/28 04:29:28;;;;;;;7.2;4.2;;;;;;;19.59;65.4873;943.9766;;;;
2019/06/28 04:32:10;;;;;;;8.6;3.9;;;;;;;19.45;66.12012;944.006;;;;
2019/06/28 04:35:07;;;;;;;10.3;3.5;;;;;;;19.37;66.13086;944.003;;;;
2019/06/28 04:37:52;;;;;;;6.9;3.3;;;;;;;19.41;66.05469;944.0371;;;;
2019/06/28 04:40:26;;;;;;;6;3.4;;;;;;;19.53;64.62695;944.1389;;;;
2019/06/28 04:43:05;;;;;;;10.5;4.4;;;;;;;19.46;66.98242;944.1005;;;;
2019/06/28 04:45:46;;;;;;;7.4;3.4;;;;;;;19.35;66.79102;944.0405;;;;
2019/06/28 04:48:23;;;;;;;7.4;3.5;;;;;;;19.12;67.33887;944.0539;;;;
2019/06/28 04:51:13;;;;;;;5.6;3.6;;;;;;;19.08;67.64648;944.0336;;;;
2019/06/28 04:53:50;;;;;;;5.7;3.4;;;;;;;18.63;69.11426;944.0349;;;;
2019/06/28 04:56:31;;;;;;;5.5;3.3;;;;;;;18.69;67.44727;944.0447;;;;
2019/06/28 04:59:21;;;;;;;6.1;3.4;;;;;;;18.79;67.28809;944.0417;;;;
2019/06/28 05:01:48;;;;;;;8.5;4.1;;;;;;;18.71;68.15918;944.0856;;;;
2019/06/28 05:04:38;;;;;;;7.7;3.7;;;;;;;18.84;68.33203;943.993;;;;
2019/06/28 05:07:15;;;;;;;6.8;3.4;;;;;;;19.75;64.32227;944.014;;;;
2019/06/28 05:09:57;;;;;;;8.3;3.4;;;;;;;20.85;61.37109;943.9814;;;;
2019/06/28 05:12:37;;;;;;;10.2;3.5;;;;;;;22.17;58.02637;944.007;;;;
2019/06/28 05:15:20;;;;;;;5.8;3.3;;;;;;;22.69;56.49805;944.0204;;;;
2019/06/28 05:18:03;;;;;;;8.9;3.6;;;;;;;22.92;56.97168;943.9432;;;;
2019/06/28 05:20:39;;;;;;;8.9;3.2;;;;;;;23.51;54.33203;944.0317;;;;
2019/06/28 05:23:30;;;;;;;8.7;3.5;;;;;;;24.04;53.43066;943.9336;;;;
2019/06/28 05:26:15;;;;;;;7.7;3.5;;;;;;;24.39;52.35449;943.9889;;;;
2019/06/28 05:29:07;;;;;;;7.2;3.4;;;;;;;24.61;52.1084;944.062;;;;
2019/06/28 05:31:59;;;;;;;9.2;3.6;;;;;;;24.72;52.48633;944.0772;;;;
2019/06/28 05:34:45;;;;;;;7.2;3.3;;;;;;;25.18;50.64063;944.0372;;;;
2019/06/28 05:37:14;;;;;;;7.1;3.3;;;;;;;26.01;49.3623;944.0616;;;;
2019/06/28 05:40:01;;;;;;;6.6;2.8;;;;;;;26.05;47.90039;944.0419;;;;
2019/06/28 05:43:00;;;;;;;7.7;3.1;;;;;;;26.84;45.36621;944.0301;;;;
2019/06/28 05:45:43;;;;;;;4.5;2.9;;;;;;;26.75;43.99512;944.0045;;;;
2019/06/28 05:48:20;;;;;;;8.1;2.9;;;;;;;27.72;43.03418;943.9221;;;;
2019/06/28 05:51:08;;;;;;;5.9;2.2;;;;;;;28.64;37.75684;943.9239;;;;
2019/06/28 05:53:41;;;;;;;4.1;2.3;;;;;;;28.99;37.45215;943.9522;;;;
2019/06/28 05:56:19;;;;;;;5.7;2.1;;;;;;;29.89;36.76367;943.96;;;;
2019/06/28 05:58:59;;;;;;;5.4;2.2;;;;;;;29.65;35.33691;943.9288;;;;
2019/06/28 06:01:33;;;;;;;4.9;2.1;;;;;;;29.36;37.20898;943.9883;;;;
2019/06/28 06:04:19;;;;;;;5.7;1.8;;;;;;;29.82;36.99707;943.9973;;;;
2019/06/28 06:06:47;;;;;;;7.4;2.2;;;;;;;29.68;36.47266;943.9016;;;;
2019/06/28 06:09:31;;;;;;;9.4;2.1;;;;;;;30.09;35.12109;943.941;;;;
2019/06/28 06:12:12;;;;;;;8;2.6;;;;;;;30.55;36.85352;943.9746;;;;
2019/06/28 06:14:50;;;;;;;9.7;2.4;;;;;;;31.12;32.30566;943.9149;;;;
2019/06/28 06:17:19;;;;;;;4.9;2.1;;;;;;;31.21;33.24609;943.8786;;;;
2019/06/28 06:20:00;;;;;;;5.5;2.1;;;;;;;31.05;34.4541;943.8962;;;;
2019/06/28 06:22:34;;;;;;;4.2;1.8;;;;;;;31.08;32.90234;943.8859;;;;
2019/06/28 06:25:07;;;;;;;7.7;1.9;;;;;;;31.33;34.08105;943.8357;;;;
2019/06/28 06:29:19;;;;;;;7.2;1.9;;;;;;;30.96;35.71484;943.8628;;;;
2019/06/28 06:32:10;;;;;;;6.6;1.9;;;;;;;31.62;32.47461;943.8469;;;;
2019/06/28 06:35:04;;;;;;;7.3;2.3;;;;;;;32.05;31.23438;943.8627;;;;
2019/06/28 06:38:00;;;;;;;6.8;2.1;;;;;;;32.22;31.55762;943.8979;;;;
2019/06/28 06:40:43;;;;;;;4.7;1.9;;;;;;;32.08;32.30273;943.8137;;;;
2019/06/28 06:43:18;;;;;;;8.4;2.4;;;;;;;32.49;32.48828;943.7862;;;;
2019/06/28 06:45:51;;;;;;;6.3;2.1;;;;;;;32.78;30.32422;943.837;;;;
2019/06/28 06:48:32;;;;;;;5.1;2.1;;;;;;;33.53;29.61719;943.7621;;;;
2019/06/28 06:51:20;;;;;;;9;2.2;;;;;;;33.73;30.26758;943.7834;;;;
2019/06/28 06:54:13;;;;;;;7.5;2.2;;;;;;;32.79;29.66504;943.7775;;;;
2019/06/28 06:56:55;;;;;;;5.8;1.9;;;;;;;34.27;27.90625;943.7653;;;;
2019/06/28 06:59:38;;;;;;;8.3;1.8;;;;;;;34.58;27.06934;943.6436;;;;
2019/06/28 07:05:17;;;;;;;6.4;1.8;;;;;;;34.8;27.21582;943.6599;;;;
2019/06/28 07:08:16;;;;;;;6.7;1.8;;;;;;;34.9;24.89355;943.6592;;;;
2019/06/28 07:10:54;;;;;;;4.8;1.6;;;;;;;34.25;28.41016;943.6597;;;;
2019/06/28 07:13:28;;;;;;;4;1.7;;;;;;;35.38;25.37891;943.6231;;;;
2019/06/28 07:16:10;;;;;;;4;1.6;;;;;;;35.69;21.96387;943.57;;;;
2019/06/28 07:18:41;;;;;;;4.2;1.4;;;;;;;36.14;22.9043;943.5834;;;;
2019/06/28 07:21:20;;;;;;;3.9;1.7;;;;;;;36.33;22.58789;943.627;;;;
2019/06/28 07:24:01;;;;;;;6.5;1.7;;;;;;;35.81;26.44141;943.5787;;;;
2019/06/28 07:26:57;;;;;;;6.1;1.7;;;;;;;35.68;26.0957;943.5861;;;;
2019/06/28 07:29:29;;;;;;;5.9;1.6;;;;;;;35.84;24.20703;943.5958;;;;
2019/06/28 07:32:11;;;;;;;4.1;1.6;;;;;;;35.45;25.8291;943.6105;;;;
2019/06/28 07:34:44;;;;;;;4.6;1.4;;;;;;;35.34;23.93945;943.5784;;;;
2019/06/28 07:37:34;;;;;;;5;1.5;;;;;;;35.42;26.99902;943.5417;;;;
2019/06/28 07:40:20;;;;;;;4.2;1.8;;;;;;;35.82;23.6748;943.483;;;;
2019/06/28 07:43:07;;;;;;;7.7;1.8;;;;;;;35.97;23.70605;943.4692;;;;
2019/06/28 09:46:35;;;;;;;6.9;1.8;;;;;;;31.4;32.53027;942.8928;;;;
2019/06/28 09:49:10;;;;;;;5.6;2.2;;;;;;;31.51;32.94434;942.897;;;;
2019/06/28 09:51:41;;;;;;;2;1.7;;;;;;;31.28;32.93945;942.8703;;;;
2019/06/28 09:54:06;;;;;;;5.4;1.8;;;;;;;31.02;33.0293;942.8467;;;;
2019/06/28 09:56:40;;;;;;;9.2;2;;;;;;;31.08;34.19434;942.9208;;;;
2019/06/28 09:59:05;;;;;;;9.2;2;;;;;;;30.95;35.51172;942.8546;;;;
2019/06/28 10:01:56;;;;;;;5.6;1.9;;;;;;;30.74;34.35938;942.8156;;;;
2019/06/28 10:04:33;;;;;;;3.9;1.7;;;;;;;30.66;33.26563;942.8337;;;;
2019/06/28 10:07:10;;;;;;;8.6;2;;;;;;;30.58;35.83984;942.8553;;;;
2019/06/28 10:09:46;;;;;;;9.7;2;;;;;;;30.68;34.16309;942.7601;;;;
2019/06/28 10:12:24;;;;;;;5;1.9;;;;;;;30.73;34.08398;942.7734;;;;
2019/06/28 10:14:57;;;;;;;9.4;2.1;;;;;;;30.75;32.90137;942.7578;;;;
2019/06/28 10:17:37;;;;;;;5.2;1.8;;;;;;;30.79;33.94434;942.7644;;;;
2019/06/28 10:20:22;;;;;;;4.1;1.6;;;;;;;31.1;31.74316;942.7853;;;;
2019/06/28 10:23:04;;;;;;;5.7;2;;;;;;;31.11;32.3418;942.7497;;;;
2019/06/28 10:25:40;;;;;;;5;1.9;;;;;;;30.9;33.30664;942.6715;;;;
2019/06/28 10:28:19;;;;;;;7.2;1.9;;;;;;;30.97;34.83008;942.6242;;;;
2019/06/28 10:30:45;;;;;;;4.4;1.6;;;;;;;30.79;32.48633;942.6447;;;;
2019/06/28 10:33:35;;;;;;;6.2;1.9;;;;;;;30.79;34.25586;942.6447;;;;
2019/06/28 10:36:11;;;;;;;5.1;1.6;;;;;;;30.81;33.0498;942.7289;;;;
2019/06/28 10:38:50;;;;;;;3.6;1.7;;;;;;;30.85;32.80176;942.7056;;;;
2019/06/28 10:41:35;;;;;;;8.4;1.9;;;;;;;30.62;33.56152;942.7308;;;;
2019/06/28 10:44:30;;;;;;;6.3;2;;;;;;;30.46;34.33789;942.7484;;;;
2019/06/28 10:47:07;;;;;;;3.8;1.8;;;;;;;30.4;34.26172;942.7492;;;;
2019/06/28 10:49:58;;;;;;;7.5;2;;;;;;;30.53;32.98145;942.7012;;;;
2019/06/28 10:52:29;;;;;;;4.7;1.7;;;;;;;30.52;34.38965;942.7828;;;;
2019/06/28 10:54:54;;;;;;;7.8;2.1;;;;;;;30.62;33.74023;942.7097;;;;
2019/06/28 10:57:39;;;;;;;4.9;1.9;;;;;;;30.58;32.32813;942.808;;;;
2019/06/28 11:00:20;;;;;;;6.2;1.7;;;;;;;30.82;31.52051;942.7145;;;;
2019/06/28 11:03:08;;;;;;;6.9;1.9;;;;;;;30.67;32.07129;942.7444;;;;
2019/06/28 11:05:41;;;;;;;8.2;1.8;;;;;;;30.53;32.51465;942.7592;;;;
2019/06/28 11:08:31;;;;;;;4.2;1.6;;;;;;;30.71;32.83887;942.655;;;;
2019/06/28 11:11:28;;;;;;;8;1.8;;;;;;;30.69;31.11719;942.7142;;;;
2019/06/28 11:13:51;;;;;;;8.8;1.8;;;;;;;30.62;32.03223;942.5519;;;;
2019/06/28 11:16:35;;;;;;;9.1;1.7;;;;;;;30.69;33.21973;942.6577;;;;
2019/06/28 11:19:19;;;;;;;7.9;1.6;;;;;;;30.86;32.84961;942.6385;;;;
2019/06/28 11:21:46;;;;;;;6.7;1.7;;;;;;;30.93;32.71191;942.6702;;;;
2019/06/28 11:24:19;;;;;;;5.5;1.6;;;;;;;30.9;30.5332;942.5965;;;;
2019/06/28 11:26:47;;;;;;;4.2;1.7;;;;;;;30.94;30.48828;942.6558;;;;
2019/06/28 11:29:30;;;;;;;5.3;1.7;;;;;;;30.91;32.08887;942.6426;;;;
2019/06/28 11:32:24;;;;;;;4.7;1.6;;;;;;;30.71;32.15723;942.6234;;;;
2019/06/28 11:34:51;;;;;;;3.6;1.7;;;;;;;30.7;30.7832;942.6116;;;;
2019/06/28 11:37:25;;;;;;;3.3;1.5;;;;;;;30.76;31.18164;942.5275;;;;
2019/06/28 11:40:14;;;;;;;6.2;1.5;;;;;;;30.82;32.46387;942.6316;;;;
2019/06/28 11:43:08;;;;;;;6;1.5;;;;;;;30.78;32.13965;942.5591;;;;
2019/06/28 11:45:36;;;;;;;3;1.4;;;;;;;30.84;28.9043;942.5134;;;;
2019/06/28 11:48:18;;;;;;;4.2;1.4;;;;;;;30.65;28.33008;942.5733;;;;
2019/06/28 11:51:02;;;;;;;4.6;1.3;;;;;;;30.33;28.72754;942.6003;;;;
2019/06/28 11:53:45;;;;;;;3.8;1.3;;;;;;;30.49;28.70215;942.5117;;;;
2019/06/28 11:56:14;;;;;;;6.1;1.5;;;;;;;30.75;29.91309;942.4906;;;;
2019/06/28 11:58:50;;;;;;;2.9;1.5;;;;;;;30.84;28.84375;942.4608;;;;
2019/06/28 12:01:27;;;;;;;5.6;1.4;;;;;;;30.7;28.72754;942.4669;;;;
2019/06/28 12:04:00;;;;;;;4.8;1.3;;;;;;;30.85;29.28711;942.3937;;;;
2019/06/28 12:06:28;;;;;;;3.5;1.3;;;;;;;30.79;28.62598;942.4078;;;;
2019/06/28 12:09:06;;;;;;;7.6;1.6;;;;;;;30.73;31.39453;942.3393;;;;
2019/06/28 12:11:31;;;;;;;5.8;1.4;;;;;;;30.84;31.38965;942.3831;;;;
2019/06/28 12:14:13;;;;;;;3.3;1.3;;;;;;;30.89;28.65527;942.3833;;;;
2019/06/28 12:16:58;;;;;;;2.2;1.4;;;;;;;30.8;30.99316;942.3842;;;;
2019/06/28 12:19:28;;;;;;;5;1.4;;;;;;;31.08;28.40527;942.3323;;;;
2019/06/28 12:22:05;;;;;;;3.4;1.2;;;;;;;31.12;30.44043;942.3825;;;;
2019/06/28 12:28:30;;;;;;;3.1;1.3;;;;;;;31.06;27.3877;942.3232;;;;
2019/06/28 12:31:17;;;;;;;3.6;1;;;;;;;31.07;27.42285;942.2469;;;;
2019/06/28 12:33:49;;;;;;;2.5;1.1;;;;;;;31.05;26.22656;942.3166;;;;
2019/06/28 12:36:33;;;;;;;4.3;1.3;;;;;;;30.96;26.93848;942.2964;;;;
2019/06/28 12:39:15;;;;;;;4;1.3;;;;;;;30.96;26.85449;942.2136;;;;
2019/06/28 12:41:45;;;;;;;3.6;1.3;;;;;;;30.72;27.16309;942.2617;;;;
2019/06/28 12:44:20;;;;;;;4.6;1.3;;;;;;;30.7;27.9502;942.2484;;;;
2019/06/28 12:46:46;;;;;;;3.1;1.2;;;;;;;30.7;28.20215;942.2432;;;;
2019/06/28 12:49:19;;;;;;;4.6;1.3;;;;;;;30.58;28.12207;942.2766;;;;
2019/06/28 12:52:11;;;;;;;3.6;1.3;;;;;;;30.68;27.73438;942.2787;;;;
2019/06/28 12:54:43;;;;;;;2.6;1.3;;;;;;;30.69;26.875;942.2537;;;;
2019/06/28 12:57:25;;;;;;;4.2;1.2;;;;;;;30.72;29.56543;942.2406;;;;
2019/06/28 12:59:57;;;;;;;5.6;1.3;;;;;;;30.55;27.8457;942.1555;;;;
2019/06/28 13:02:21;;;;;;;2.5;1.2;;;;;;;30.46;28.64063;942.2498;;;;
2019/06/28 13:05:08;;;;;;;2.1;1.2;;;;;;;30.35;27.16504;942.1664;;;;
2019/06/28 13:07:40;;;;;;;5.2;1.2;;;;;;;30.38;28.45605;942.1916;;;;
2019/06/28 13:10:29;;;;;;;7.9;1.4;;;;;;;30.5;28.1543;942.0751;;;;
2019/06/28 13:12:56;;;;;;;5.7;1.2;;;;;;;30.4;28.80371;942.2377;;;;
2019/06/28 13:15:45;;;;;;;2.2;1.2;;;;;;;30.41;28.29102;942.1653;;;;
2019/06/28 13:18:24;;;;;;;2.3;1;;;;;;;30.37;27.16602;942.1717;;;;
2019/06/28 13:20:52;;;;;;;2.1;1.1;;;;;;;30.43;26.17871;942.1525;;;;
2019/06/28 13:23:26;;;;;;;3.7;1.2;;;;;;;30.53;25.52734;942.137;;;;
2019/06/28 13:26:13;;;;;;;2.3;1.2;;;;;;;30.68;27.00586;942.0419;;;;
2019/06/28 13:29:02;;;;;;;1.7;1.1;;;;;;;30.63;27.69531;942.0848;;;;
2019/06/28 13:31:45;;;;;;;3.7;1.2;;;;;;;30.78;26.35449;941.9933;;;;
2019/06/28 13:34:42;;;;;;;2.7;1.3;;;;;;;30.54;26.65039;942.0568;;;;
2019/06/28 13:37:13;;;;;;;3.8;1.3;;;;;;;30.43;27.83789;941.9997;;;;
2019/06/28 13:40:01;;;;;;;7.4;1.3;;;;;;;30.34;27.10449;942.1204;;;;
2019/06/28 13:42:35;;;;;;;2.5;1.3;;;;;;;30.24;26.77637;942.0977;;;;
2019/06/28 13:45:01;;;;;;;5.8;1.3;;;;;;;30.41;27.71777;942.0825;;;;
2019/06/28 13:47:57;;;;;;;4.5;1.4;;;;;;;30.29;26.30176;942.0492;;;;
2019/06/28 13:51:04;;;;;;;3.5;1.3;;;;;;;30.16;27.61914;942.0051;;;;
2019/06/28 13:53:34;;;;;;;3.9;1.3;;;;;;;30.17;26.39063;942.0472;;;;
2019/06/28 13:56:18;;;;;;;4.4;1.1;;;;;;;30.19;27.14355;942.0578;;;;
2019/06/28 13:58:38;;;;;;;2.8;1.2;;;;;;;30.11;26.54199;942.0405;;;;
2019/06/28 14:01:24;;;;;;;3.9;1.3;;;;;;;30.27;27.12402;941.965;;;;
2019/06/28 14:04:08;;;;;;;4.3;1.3;;;;;;;30.12;28.24902;942.1036;;;;
2019/06/28 14:06:52;;;;;;;5.9;1.3;;;;;;;30.21;27.83789;942.0711;;;;
2019/06/28 14:09:37;;;;;;;7.4;1.3;;;;;;;30.16;27.70313;941.992;;;;
2019/06/28 14:12:18;;;;;;;3.1;1.1;;;;;;;30.05;28.37598;942.0993;;;;
2019/06/28 14:14:39;;;;;;;5;1.5;;;;;;;30.13;28.45215;942.0023;;;;
2019/06/28 14:17:24;;;;;;;3;1.3;;;;;;;30.13;27.34277;941.9669;;;;
2019/06/28 14:20:16;;;;;;;5.5;1.3;;;;;;;30.19;28.30176;942.0447;;;;
2019/06/28 14:23:14;;;;;;;2.3;1.3;;;;;;;30.21;29.97461;941.9791;;;;
2019/06/28 14:25:56;;;;;;;4.7;1.3;;;;;;;30.12;28.94141;942.0432;;;;
2019/06/28 14:28:29;;;;;;;3.7;1.3;;;;;;;30.11;27.92676;941.93;;;;
2019/06/28 14:31:01;;;;;;;3.9;1.4;;;;;;;30.06;28.12598;941.9614;;;;
2019/06/28 14:33:37;;;;;;;3.2;1.3;;;;;;;29.89;27.86523;941.9534;;;;
2019/06/28 14:36:07;;;;;;;4.5;1.4;;;;;;;29.91;27.72363;941.9326;;;;
2019/06/28 14:38:40;;;;;;;4.6;1.3;;;;;;;29.91;29.23828;941.9457;;;;
2019/06/28 14:41:17;;;;;;;2.2;1.4;;;;;;;29.95;28.07129;941.9788;;;;
2019/06/28 14:44:00;;;;;;;2.7;1.1;;;;;;;29.64;28.27832;942.0268;;;;
2019/06/28 14:46:22;;;;;;;5;1.4;;;;;;;29.59;27.62012;941.9697;;;;
2019/06/28 14:49:08;;;;;;;5.4;1.3;;;;;;;29.61;29.02832;942.0092;;;;
2019/06/28 14:51:36;;;;;;;6.5;1.4;;;;;;;29.82;29.36328;941.9871;;;;
2019/06/28 14:54:24;;;;;;;2.4;1.3;;;;;;;29.92;28.84473;942.0062;;;;
2019/06/28 14:56:59;;;;;;;2.9;1.5;;;;;;;29.82;29.7207;942.0054;;;;
2019/06/28 14:59:40;;;;;;;3.6;1.3;;;;;;;29.61;31.15039;942.0394;;;;
2019/06/28 15:02:25;;;;;;;8.2;1.5;;;;;;;29.58;28.56152;941.9697;;;;
2019/06/28 15:04:56;;;;;;;2.9;1.2;;;;;;;29.45;28.12402;941.9387;;;;
2019/06/28 15:10:29;;;;;;;6.7;1.5;;;;;;;29.43;28.69434;941.9734;;;;
2019/06/28 15:12:58;;;;;;;7.3;1.6;;;;;;;29.27;29.6377;942.0038;;;;
2019/06/28 15:15:21;;;;;;;4.2;1.6;;;;;;;29.25;30.58887;941.9459;;;;
2019/06/28 15:18:11;;;;;;;4.1;1.5;;;;;;;29.2;29.63281;942.0582;;;;
2019/06/28 15:21:06;;;;;;;2.8;1.4;;;;;;;29.26;29.32715;941.9828;;;;
2019/06/28 15:23:36;;;;;;;3.5;1.5;;;;;;;29.22;29.34766;942.0596;;;;
2019/06/28 15:26:03;;;;;;;5.9;1.5;;;;;;;29.31;30.02148;942.0186;;;;
2019/06/28 15:28:29;;;;;;;6.3;1.6;;;;;;;29.36;29.67871;941.9966;;;;
2019/06/28 15:31:16;;;;;;;5.8;1.6;;;;;;;29.25;30.2793;941.967;;;;
2019/06/28 15:33:56;;;;;;;5.7;1.6;;;;;;;29.26;31.06543;942.0142;;;;
2019/06/28 15:36:25;;;;;;;5;1.5;;;;;;;29.26;31.10156;942.0667;;;;
2019/06/28 15:38:54;;;;;;;5;1.5;;;;;;;29.27;31.95996;942.0392;;;;
2019/06/28 15:41:32;;;;;;;3.4;1.4;;;;;;;29.18;30.91797;942.0449;;;;
2019/06/28 15:44:17;;;;;;;5.4;1.6;;;;;;;29.19;30.65723;941.9938;;;;
2019/06/28 15:46:52;;;;;;;3.8;1.5;;;;;;;29.2;32.52734;942.028;;;;
2019/06/28 15:49:41;;;;;;;5.8;1.6;;;;;;;29.11;30.65039;941.9551;;;;
2019/06/28 15:52:14;;;;;;;4.9;1.4;;;;;;;29.16;32.79785;941.9607;;;;
2019/06/28 15:54:46;;;;;;;5.3;1.3;;;;;;;29.28;30.22168;941.9448;;;;
2019/06/28 15:57:27;;;;;;;4.5;1.4;;;;;;;29.16;29.95117;941.9607;;;;
2019/06/28 16:00:16;;;;;;;3.5;1.5;;;;;;;28.99;30.09473;941.9053;;;;
2019/06/28 16:03:13;;;;;;;3.9;1.6;;;;;;;28.95;30.94922;941.8932;;;;
2019/06/28 16:05:48;;;;;;;2.9;1.4;;;;;;;28.75;32.42285;941.9473;;;;
2019/06/28 16:08:30;;;;;;;5.6;1.5;;;;;;;28.75;31.03125;941.9119;;;;
2019/06/28 16:10:59;;;;;;;4.5;1.4;;;;;;;28.77;30.48535;941.8267;;;;
2019/06/28 16:13:26;;;;;;;7.2;1.5;;;;;;;28.82;31.5;941.9938;;;;
2019/06/28 16:16:10;;;;;;;6;1.4;;;;;;;28.71;30.73047;941.8931;;;;
2019/06/28 16:18:57;;;;;;;4.8;1.4;;;;;;;28.71;31.64746;941.9233;;;;
2019/06/28 16:21:24;;;;;;;5.5;1.5;;;;;;;28.61;32.40137;941.9444;;;;
2019/06/28 16:24:06;;;;;;;4.2;1.5;;;;;;;28.55;31.82617;941.9582;;;;
2019/06/28 16:26:44;;;;;;;2.3;1.4;;;;;;;28.66;32.04785;941.9622;;;;
2019/06/28 16:29:27;;;;;;;2.7;1.5;;;;;;;28.55;31.64746;942.0106;;;;
2019/06/28 16:32:13;;;;;;;5.2;1.5;;;;;;;28.4;31.45801;941.9866;;;;
2019/06/28 16:35:00;;;;;;;5.9;1.5;;;;;;;28.47;33.21191;942.002;;;;
2019/06/28 16:37:26;;;;;;;4.5;1.4;;;;;;;28.52;33.19141;942.0327;;;;
2019/06/28 16:40:23;;;;;;;3.8;1.5;;;;;;;28.47;31.61816;942.019;;;;
2019/06/28 16:43:15;;;;;;;3.7;1.6;;;;;;;28.43;32.12695;942.0554;;;;
2019/06/28 16:50:00;;;;;;;5.5;1.4;;;;;;;28.22;31.24414;942.0627;;;;
2019/06/28 16:52:23;;;;;;;3.3;1.4;;;;;;;28.21;32.4082;942.0075;;;;
2019/06/28 16:54:59;;;;;;;4.8;1.7;;;;;;;28.19;31.99023;942.0243;;;;
2019/06/28 16:57:42;;;;;;;5.6;1.6;;;;;;;28.03;32.47852;942.0012;;;;
2019/06/28 17:00:29;;;;;;;3.2;1.6;;;;;;;27.76;32.8623;942.0002;;;;
2019/06/28 17:02:59;;;;;;;5.3;1.6;;;;;;;27.83;33.80566;941.9542;;;;
2019/06/28 17:05:36;;;;;;;3;1.4;;;;;;;27.72;34.02344;942.0101;;;;
2019/06/28 17:08:19;;;;;;;6.7;1.8;;;;;;;27.53;34.03125;942.0148;;;;
2019/06/28 17:11:18;;;;;;;2.9;1.3;;;;;;;27.33;33.54199;942.0417;;;;
2019/06/28 17:14:13;;;;;;;4.9;1.6;;;;;;;27.29;34.52441;942.0255;;;;
2019/06/28 17:16:58;;;;;;;5.1;1.7;;;;;;;27.15;34.8457;942.0388;;;;
2019/06/28 17:19:33;;;;;;;5.9;1.6;;;;;;;27.06;34.88672;941.9995;;;;
2019/06/28 17:22:33;;;;;;;5.6;1.5;;;;;;;27.08;35.37402;941.9749;;;;
2019/06/28 17:25:21;;;;;;;5.9;1.7;;;;;;;26.93;35.66992;942.0111;;;;
2019/06/28 17:28:06;;;;;;;5;1.7;;;;;;;26.9;35.76172;942.0511;;;;
2019/06/28 17:30:34;;;;;;;5.4;1.8;;;;;;;26.89;35.75;942.0211;;;;
2019/06/28 17:33:12;;;;;;;3.6;1.6;;;;;;;26.92;35.2666;942.1169;;;;
2019/06/28 17:35:44;;;;;;;3.1;1.6;;;;;;;26.76;35.27734;942.1113;;;;
2019/06/28 17:38:26;;;;;;;5.1;1.7;;;;;;;26.79;35.77637;942.1237;;;;
2019/06/28 17:41:09;;;;;;;5;1.7;;;;;;;26.81;36.44141;942.1554;;;;
2019/06/28 17:43:45;;;;;;;6.7;1.7;;;;;;;26.79;36.46387;942.1811;;;;
2019/06/28 17:46:19;;;;;;;5.2;1.6;;;;;;;26.75;37.10059;942.2263;;;;
2019/06/28 17:48:40;;;;;;;3.4;1.5;;;;;;;26.64;36.23828;942.2217;;;;
2019/06/28 17:51:05;;;;;;;5.9;1.6;;;;;;;26.65;37.05762;942.1971;;;;
2019/06/28 17:53:34;;;;;;;4.9;1.6;;;;;;;26.48;36.30859;942.2277;;;;
2019/06/28 17:56:12;;;;;;;3.6;1.6;;;;;;;26.55;36.5752;942.2433;;;;